sensor_id;sensor_type;location;lat;lon;timestamp;pressure;altitude;pressure_sealevel;temperature;humidity
34297;BME280;20564;42.902;25.336;2023-05-07T00:05:27;97507.75;;;7.88;100.00
34297;BME280;20564;42.902;25.336;2023-05-07T00:07:54;97510.50;;;7.87;100.00
34297;BME280;20564;42.902;25.336;2023-05-07T00:10:25;97515.97;;;7.84;100.00
34297;BME280;20564;42.902;25.336;2023-05-07T00:12:53;97513.69;;;7.79;100.00
34297;BME280;20564;42.902;25.336;2023-05-07T00:15:20;97516.75;;;7.73;100.00
34297;BME280;20564;42.902;25.336;2023-05-07T00:17:47;97508.06;;;7.72;100.00
34297;BME280;20564;42.902;25.336;2023-05-07T00:21:08;97511.03;;;7.68;100.00
34297;BME280;20564;42.902;25.336;2023-05-07T00:23:36;97518.16;;;7.66;100.00
34297;BME280;20564;42.902;25.336;2023-05-07T00:26:50;97510.88;;;7.58;100.00
34297;BME280;20564;42.902;25.336;2023-05-07T00:29:15;97523.84;;;7.60;100.00
34297;BME280;20564;42.902;25.336;2023-05-07T00:32:04;97516.69;;;7.51;100.00
34297;BME280;20564;42.902;25.336;2023-05-07T00:34:48;97523.94;;;7.47;100.00
34297;BME280;20564;42.902;25.336;2023-05-07T00:37:37;97530.44;;;7.41;100.00
34297;BME280;20564;42.902;25.336;2023-05-07T00:40:42;97530.44;;;7.41;100.00
34297;BME280;20564;42.902;25.336;2023-05-07T00:43:32;97525.41;;;7.38;100.00
34297;BME280;20564;42.902;25.336;2023-05-07T00:46:15;97519.56;;;7.35;100.00
34297;BME280;20564;42.902;25.336;2023-05-07T00:49:04;97522.31;;;7.33;100.00
34297;BME280;20564;42.902;25.336;2023-05-07T00:51:40;97521.97;;;7.38;100.00
34297;BME280;20564;42.902;25.336;2023-05-07T00:54:08;97525.06;;;7.32;100.00
34297;BME280;20564;42.902;25.336;2023-05-07T00:56:40;97524.19;;;7.31;100.00
34297;BME280;20564;42.902;25.336;2023-05-07T00:59:10;97534.22;;;7.37;100.00
34297;BME280;20564;42.902;25.336;2023-05-07T01:01:38;97529.34;;;7.33;100.00
34297;BME280;20564;42.902;25.336;2023-05-07T01:04:11;97526.94;;;7.30;100.00
34297;BME280;20564;42.902;25.336;2023-05-07T01:06:40;97525.63;;;7.24;100.00
34297;BME280;20564;42.902;25.336;2023-05-07T01:09:13;97524.88;;;7.22;100.00
34297;BME280;20564;42.902;25.336;2023-05-07T01:11:42;97529.50;;;7.18;100.00
34297;BME280;20564;42.902;25.336;2023-05-07T01:14:11;97525.53;;;7.13;100.00
34297;BME280;20564;42.902;25.336;2023-05-07T01:16:38;97519.69;;;7.09;100.00
34297;BME280;20564;42.902;25.336;2023-05-07T01:19:09;97526.31;;;7.02;100.00
34297;BME280;20564;42.902;25.336;2023-05-07T01:21:38;97526.31;;;7.02;100.00
34297;BME280;20564;42.902;25.336;2023-05-07T01:24:15;97523.38;;;7.07;100.00
34297;BME280;20564;42.902;25.336;2023-05-07T01:26:44;97522.63;;;7.05;100.00
34297;BME280;20564;42.902;25.336;2023-05-07T01:29:12;97528.09;;;7.01;100.00
34297;BME280;20564;42.902;25.336;2023-05-07T01:31:41;97523.31;;;6.95;100.00
34297;BME280;20564;42.902;25.336;2023-05-07T01:34:12;97529.59;;;6.93;100.00
34297;BME280;20564;42.902;25.336;2023-05-07T01:36:42;97527.09;;;6.91;100.00
34297;BME280;20564;42.902;25.336;2023-05-07T01:39:14;97523.53;;;6.92;100.00
34297;BME280;20564;42.902;25.336;2023-05-07T01:41:43;97523.31;;;6.95;100.00
34297;BME280;20564;42.902;25.336;2023-05-07T01:44:13;97531.78;;;6.99;100.00
34297;BME280;20564;42.902;25.336;2023-05-07T01:46:41;97524.34;;;6.93;100.00
34297;BME280;20564;42.902;25.336;2023-05-07T01:49:10;97524.47;;;6.91;100.00
34297;BME280;20564;42.902;25.336;2023-05-07T01:51:37;97515.88;;;6.89;100.00
34297;BME280;20564;42.902;25.336;2023-05-07T01:54:06;97511.81;;;6.85;100.00
34297;BME280;20564;42.902;25.336;2023-05-07T01:56:36;97507.41;;;6.86;100.00
34297;BME280;20564;42.902;25.336;2023-05-07T01:59:03;97507.28;;;6.87;100.00
34297;BME280;20564;42.902;25.336;2023-05-07T02:01:34;97497.91;;;6.85;100.00
34297;BME280;20564;42.902;25.336;2023-05-07T02:04:02;97501.56;;;6.82;100.00
34297;BME280;20564;42.902;25.336;2023-05-07T02:06:30;97500.22;;;6.76;100.00
34297;BME280;20564;42.902;25.336;2023-05-07T02:09:01;97495.09;;;6.75;100.00
34297;BME280;20564;42.902;25.336;2023-05-07T02:11:29;97493.22;;;6.77;100.00
34297;BME280;20564;42.902;25.336;2023-05-07T02:13:57;97494.66;;;6.81;100.00
34297;BME280;20564;42.902;25.336;2023-05-07T02:16:25;97486.06;;;6.79;100.00
34297;BME280;20564;42.902;25.336;2023-05-07T02:18:52;97484.06;;;6.83;100.00
34297;BME280;20564;42.902;25.336;2023-05-07T02:21:20;97485.88;;;6.82;100.00
34297;BME280;20564;42.902;25.336;2023-05-07T02:23:48;97491.31;;;6.79;100.00
34297;BME280;20564;42.902;25.336;2023-05-07T02:26:19;97496.06;;;6.74;100.00
34297;BME280;20564;42.902;25.336;2023-05-07T02:28:48;97498.66;;;6.74;100.00
34297;BME280;20564;42.902;25.336;2023-05-07T02:31:19;97497.84;;;6.73;100.00
34297;BME280;20564;42.902;25.336;2023-05-07T02:33:47;97488.63;;;6.68;100.00
34297;BME280;20564;42.902;25.336;2023-05-07T02:36:18;97489.56;;;6.67;100.00
34297;BME280;20564;42.902;25.336;2023-05-07T02:38:45;97480.28;;;6.63;100.00
34297;BME280;20564;42.902;25.336;2023-05-07T02:41:13;97474.44;;;6.59;100.00
34297;BME280;20564;42.902;25.336;2023-05-07T02:43:40;97479.25;;;6.52;100.00
34297;BME280;20564;42.902;25.336;2023-05-07T02:46:08;97472.16;;;6.55;100.00
34297;BME280;20564;42.902;25.336;2023-05-07T02:48:35;97480.81;;;6.55;100.00
34297;BME280;20564;42.902;25.336;2023-05-07T02:51:04;97474.63;;;6.56;100.00
34297;BME280;20564;42.902;25.336;2023-05-07T02:53:32;97476.34;;;6.44;100.00
34297;BME280;20564;42.902;25.336;2023-05-07T02:56:00;97477.59;;;6.39;100.00
34297;BME280;20564;42.902;25.336;2023-05-07T02:58:28;97473.84;;;6.30;100.00
34297;BME280;20564;42.902;25.336;2023-05-07T03:00:55;97480.97;;;6.28;100.00
34297;BME280;20564;42.902;25.336;2023-05-07T03:03:22;97472.41;;;6.26;100.00
34297;BME280;20564;42.902;25.336;2023-05-07T03:05:51;97472.59;;;6.23;100.00
34297;BME280;20564;42.902;25.336;2023-05-07T03:08:18;97484.00;;;6.22;100.00
34297;BME280;20564;42.902;25.336;2023-05-07T03:10:45;97482.97;;;6.12;100.00
34297;BME280;20564;42.902;25.336;2023-05-07T03:13:12;97484.84;;;6.10;100.00
34297;BME280;20564;42.902;25.336;2023-05-07T03:15:39;97486.53;;;6.11;100.00
34297;BME280;20564;42.902;25.336;2023-05-07T03:18:06;97489.97;;;6.11;100.00
34297;BME280;20564;42.902;25.336;2023-05-07T03:20:33;97487.66;;;6.07;100.00
34297;BME280;20564;42.902;25.336;2023-05-07T03:23:00;97495.50;;;6.07;100.00
34297;BME280;20564;42.902;25.336;2023-05-07T03:25:36;97500.00;;;6.04;100.00
34297;BME280;20564;42.902;25.336;2023-05-07T03:28:03;97501.66;;;6.06;100.00
34297;BME280;20564;42.902;25.336;2023-05-07T03:30:30;97493.75;;;6.07;100.00
34297;BME280;20564;42.902;25.336;2023-05-07T03:32:57;97486.00;;;6.06;100.00
34297;BME280;20564;42.902;25.336;2023-05-07T03:35:24;97494.13;;;6.14;100.00
34297;BME280;20564;42.902;25.336;2023-05-07T03:37:51;97497.50;;;6.16;100.00
34297;BME280;20564;42.902;25.336;2023-05-07T03:40:18;97504.38;;;6.17;100.00
34297;BME280;20564;42.902;25.336;2023-05-07T03:42:46;97494.75;;;6.17;100.00
34297;BME280;20564;42.902;25.336;2023-05-07T03:45:13;97495.09;;;6.25;100.00
34297;BME280;20564;42.902;25.336;2023-05-07T03:47:40;97501.88;;;6.28;100.00
34297;BME280;20564;42.902;25.336;2023-05-07T03:50:07;97501.88;;;6.28;100.00
34297;BME280;20564;42.902;25.336;2023-05-07T03:52:35;97500.63;;;6.34;100.00
34297;BME280;20564;42.902;25.336;2023-05-07T03:55:02;97505.31;;;6.41;100.00
34297;BME280;20564;42.902;25.336;2023-05-07T03:57:29;97509.19;;;6.48;100.00
34297;BME280;20564;42.902;25.336;2023-05-07T03:59:56;97510.09;;;6.60;100.00
34297;BME280;20564;42.902;25.336;2023-05-07T04:02:23;97501.28;;;6.74;100.00
34297;BME280;20564;42.902;25.336;2023-05-07T04:04:50;97508.47;;;6.83;100.00
34297;BME280;20564;42.902;25.336;2023-05-07T04:07:17;97504.16;;;6.95;100.00
34297;BME280;20564;42.902;25.336;2023-05-07T04:09:44;97506.94;;;7.05;100.00
34297;BME280;20564;42.902;25.336;2023-05-07T04:12:11;97517.47;;;7.16;100.00
34297;BME280;20564;42.902;25.336;2023-05-07T04:14:38;97511.34;;;7.28;100.00
34297;BME280;20564;42.902;25.336;2023-05-07T04:17:06;97508.59;;;7.54;100.00
34297;BME280;20564;42.902;25.336;2023-05-07T04:19:37;97506.91;;;7.88;100.00
34297;BME280;20564;42.902;25.336;2023-05-07T04:22:04;97502.53;;;8.11;100.00
34297;BME280;20564;42.902;25.336;2023-05-07T04:24:32;97500.56;;;8.48;100.00
34297;BME280;20564;42.902;25.336;2023-05-07T04:27:00;97516.66;;;8.77;100.00
34297;BME280;20564;42.902;25.336;2023-05-07T04:29:28;97507.59;;;8.92;100.00
34297;BME280;20564;42.902;25.336;2023-05-07T04:31:56;97503.56;;;9.21;100.00
34297;BME280;20564;42.902;25.336;2023-05-07T04:34:26;97514.31;;;9.50;100.00
34297;BME280;20564;42.902;25.336;2023-05-07T04:36:54;97507.91;;;9.75;100.00
34297;BME280;20564;42.902;25.336;2023-05-07T04:39:21;97510.31;;;10.08;100.00
34297;BME280;20564;42.902;25.336;2023-05-07T04:41:48;97508.59;;;10.40;100.00
34297;BME280;20564;42.902;25.336;2023-05-07T04:44:15;97508.47;;;10.72;100.00
34297;BME280;20564;42.902;25.336;2023-05-07T04:46:49;97509.38;;;11.11;100.00
34297;BME280;20564;42.902;25.336;2023-05-07T04:49:16;97513.03;;;11.39;100.00
34297;BME280;20564;42.902;25.336;2023-05-07T04:51:44;97506.97;;;11.77;100.00
34297;BME280;20564;42.902;25.336;2023-05-07T04:54:11;97505.81;;;12.09;100.00
34297;BME280;20564;42.902;25.336;2023-05-07T04:56:38;97506.59;;;12.39;100.00
34297;BME280;20564;42.902;25.336;2023-05-07T04:59:05;97512.03;;;12.65;99.30
34297;BME280;20564;42.902;25.336;2023-05-07T05:01:32;97503.31;;;12.92;98.79
34297;BME280;20564;42.902;25.336;2023-05-07T05:03:59;97508.72;;;13.18;98.82
34297;BME280;20564;42.902;25.336;2023-05-07T05:06:27;97505.84;;;13.39;98.00
34297;BME280;20564;42.902;25.336;2023-05-07T05:08:54;97512.03;;;13.65;94.33
34297;BME280;20564;42.902;25.336;2023-05-07T05:11:22;97511.28;;;13.91;93.78
34297;BME280;20564;42.902;25.336;2023-05-07T05:13:49;97507.53;;;14.19;92.42
34297;BME280;20564;42.902;25.336;2023-05-07T05:16:16;97519.19;;;14.35;91.73
34297;BME280;20564;42.902;25.336;2023-05-07T05:18:43;97517.34;;;14.53;91.19
34297;BME280;20564;42.902;25.336;2023-05-07T05:21:10;97518.81;;;14.74;90.76
34297;BME280;20564;42.902;25.336;2023-05-07T05:23:38;97508.47;;;14.97;90.49
34297;BME280;20564;42.902;25.336;2023-05-07T05:26:05;97522.13;;;15.18;88.16
34297;BME280;20564;42.902;25.336;2023-05-07T05:28:33;97517.03;;;15.33;87.59
34297;BME280;20564;42.902;25.336;2023-05-07T05:31:00;97514.72;;;15.46;89.39
34297;BME280;20564;42.902;25.336;2023-05-07T05:33:28;97515.94;;;15.68;88.14
34297;BME280;20564;42.902;25.336;2023-05-07T05:35:57;97509.50;;;15.79;88.54
34297;BME280;20564;42.902;25.336;2023-05-07T05:38:24;97510.19;;;16.05;87.75
34297;BME280;20564;42.902;25.336;2023-05-07T05:40:52;97522.75;;;16.20;86.76
34297;BME280;20564;42.902;25.336;2023-05-07T05:43:22;97516.91;;;16.40;86.98
34297;BME280;20564;42.902;25.336;2023-05-07T05:45:49;97510.06;;;16.62;85.12
34297;BME280;20564;42.902;25.336;2023-05-07T05:48:16;97512.72;;;16.79;84.47
34297;BME280;20564;42.902;25.336;2023-05-07T05:50:43;97517.19;;;17.18;83.94
34297;BME280;20564;42.902;25.336;2023-05-07T05:53:10;97509.97;;;17.34;80.49
34297;BME280;20564;42.902;25.336;2023-05-07T05:55:37;97519.28;;;17.62;78.97
34297;BME280;20564;42.902;25.336;2023-05-07T05:58:04;97513.88;;;17.78;77.11
34297;BME280;20564;42.902;25.336;2023-05-07T06:00:32;97511.75;;;17.96;75.26
34297;BME280;20564;42.902;25.336;2023-05-07T06:02:59;97507.00;;;18.06;75.78
34297;BME280;20564;42.902;25.336;2023-05-07T06:05:27;97514.03;;;18.37;76.27
34297;BME280;20564;42.902;25.336;2023-05-07T06:07:54;97520.88;;;18.54;75.64
34297;BME280;20564;42.902;25.336;2023-05-07T06:10:21;97512.25;;;18.82;74.30
34297;BME280;20564;42.902;25.336;2023-05-07T06:12:48;97516.66;;;19.04;71.07
34297;BME280;20564;42.902;25.336;2023-05-07T06:15:15;97514.38;;;19.16;68.72
34297;BME280;20564;42.902;25.336;2023-05-07T06:17:42;97510.41;;;19.48;66.43
34297;BME280;20564;42.902;25.336;2023-05-07T06:20:11;97508.81;;;19.69;64.94
34297;BME280;20564;42.902;25.336;2023-05-07T06:22:38;97499.47;;;19.80;64.50
34297;BME280;20564;42.902;25.336;2023-05-07T06:25:06;97506.38;;;19.74;62.59
34297;BME280;20564;42.902;25.336;2023-05-07T06:27:36;97507.34;;;19.88;61.64
34297;BME280;20564;42.902;25.336;2023-05-07T06:30:04;97498.88;;;20.06;62.20
34297;BME280;20564;42.902;25.336;2023-05-07T06:32:33;97495.81;;;20.30;59.22
34297;BME280;20564;42.902;25.336;2023-05-07T06:34:59;97495.63;;;20.60;59.04
34297;BME280;20564;42.902;25.336;2023-05-07T06:37:26;97486.78;;;21.01;57.97
34297;BME280;20564;42.902;25.336;2023-05-07T06:39:54;97485.97;;;21.00;51.93
34297;BME280;20564;42.902;25.336;2023-05-07T06:42:22;97480.63;;;21.07;50.54
34297;BME280;20564;42.902;25.336;2023-05-07T06:44:49;97481.31;;;21.22;50.52
34297;BME280;20564;42.902;25.336;2023-05-07T06:47:16;97483.88;;;21.37;45.68
34297;BME280;20564;42.902;25.336;2023-05-07T06:49:43;97487.84;;;21.54;45.95
34297;BME280;20564;42.902;25.336;2023-05-07T06:52:11;97479.63;;;21.69;43.98
34297;BME280;20564;42.902;25.336;2023-05-07T06:54:39;97482.72;;;21.73;42.37
34297;BME280;20564;42.902;25.336;2023-05-07T06:57:06;97481.91;;;21.85;41.54
34297;BME280;20564;42.902;25.336;2023-05-07T06:59:33;97473.88;;;21.92;40.87
34297;BME280;20564;42.902;25.336;2023-05-07T07:02:00;97470.13;;;21.86;39.75
34297;BME280;20564;42.902;25.336;2023-05-07T07:04:27;97471.19;;;21.72;38.74
34297;BME280;20564;42.902;25.336;2023-05-07T07:06:54;97480.25;;;21.78;40.22
34297;BME280;20564;42.902;25.336;2023-05-07T07:09:23;97480.25;;;21.78;40.18
34297;BME280;20564;42.902;25.336;2023-05-07T07:11:50;97475.31;;;21.95;39.14
34297;BME280;20564;42.902;25.336;2023-05-07T07:14:20;97469.13;;;21.94;37.80
34297;BME280;20564;42.902;25.336;2023-05-07T07:16:49;97467.94;;;22.17;39.85
34297;BME280;20564;42.902;25.336;2023-05-07T07:19:16;97471.00;;;22.13;35.71
34297;BME280;20564;42.902;25.336;2023-05-07T07:21:43;97475.53;;;22.33;36.33
34297;BME280;20564;42.902;25.336;2023-05-07T07:24:12;97481.31;;;22.56;36.79
34297;BME280;20564;42.902;25.336;2023-05-07T07:26:40;97481.47;;;22.61;36.75
34297;BME280;20564;42.902;25.336;2023-05-07T07:29:31;97479.22;;;22.65;36.19
34297;BME280;20564;42.902;25.336;2023-05-07T07:31:58;97487.03;;;22.67;36.41
34297;BME280;20564;42.902;25.336;2023-05-07T07:34:44;97477.16;;;22.54;33.92
34297;BME280;20564;42.902;25.336;2023-05-07T07:37:11;97477.56;;;22.64;36.35
34297;BME280;20564;42.902;25.336;2023-05-07T07:39:38;97477.56;;;22.71;34.83
34297;BME280;20564;42.902;25.336;2023-05-07T07:42:09;97477.72;;;22.89;35.81
34297;BME280;20564;42.902;25.336;2023-05-07T07:44:36;97481.22;;;22.90;33.70
34297;BME280;20564;42.902;25.336;2023-05-07T07:47:03;97487.41;;;22.83;35.90
34297;BME280;20564;42.902;25.336;2023-05-07T07:49:30;97486.19;;;22.86;33.53
34297;BME280;20564;42.902;25.336;2023-05-07T07:51:56;97492.00;;;22.63;33.36
34297;BME280;20564;42.902;25.336;2023-05-07T07:54:26;97484.50;;;22.85;34.91
34297;BME280;20564;42.902;25.336;2023-05-07T07:56:53;97493.22;;;22.94;34.00
34297;BME280;20564;42.902;25.336;2023-05-07T07:59:20;97487.00;;;22.80;35.68
34297;BME280;20564;42.902;25.336;2023-05-07T08:02:09;97486.19;;;22.86;37.14
34297;BME280;20564;42.902;25.336;2023-05-07T08:04:36;97483.06;;;22.96;35.09
34297;BME280;20564;42.902;25.336;2023-05-07T08:07:05;97473.47;;;23.26;33.10
34297;BME280;20564;42.902;25.336;2023-05-07T08:09:32;97468.69;;;23.28;33.26
34297;BME280;20564;42.902;25.336;2023-05-07T08:11:59;97476.41;;;23.18;33.52
34297;BME280;20564;42.902;25.336;2023-05-07T08:14:26;97471.72;;;22.94;34.69
34297;BME280;20564;42.902;25.336;2023-05-07T08:16:55;97468.75;;;23.15;35.20
34297;BME280;20564;42.902;25.336;2023-05-07T08:19:22;97479.91;;;23.12;35.25
34297;BME280;20564;42.902;25.336;2023-05-07T08:21:51;97476.41;;;23.18;33.53
34297;BME280;20564;42.902;25.336;2023-05-07T08:24:18;97473.06;;;23.23;33.17
34297;BME280;20564;42.902;25.336;2023-05-07T08:26:44;97471.00;;;23.56;32.40
34297;BME280;20564;42.902;25.336;2023-05-07T08:29:13;97470.66;;;23.46;35.98
34297;BME280;20564;42.902;25.336;2023-05-07T08:31:44;97474.47;;;23.70;33.55
34297;BME280;20564;42.902;25.336;2023-05-07T08:34:22;97468.72;;;23.67;33.41
34297;BME280;20564;42.902;25.336;2023-05-07T08:36:50;97458.09;;;23.78;34.23
34297;BME280;20564;42.902;25.336;2023-05-07T08:39:21;97457.69;;;23.75;33.70
34297;BME280;20564;42.902;25.336;2023-05-07T08:42:22;97456.66;;;23.38;32.54
34297;BME280;20564;42.902;25.336;2023-05-07T08:48:17;97465.59;;;23.63;35.21
34297;BME280;20564;42.902;25.336;2023-05-07T08:50:46;97467.78;;;23.48;33.68
34297;BME280;20564;42.902;25.336;2023-05-07T08:53:23;97461.22;;;23.75;33.33
34297;BME280;20564;42.902;25.336;2023-05-07T08:56:05;97459.25;;;23.89;32.04
34297;BME280;20564;42.902;25.336;2023-05-07T08:59:02;97459.84;;;23.59;33.61
34297;BME280;20564;42.902;25.336;2023-05-07T09:01:40;97458.44;;;23.89;32.59
34297;BME280;20564;42.902;25.336;2023-05-07T09:04:22;97451.84;;;23.85;32.68
34297;BME280;20564;42.902;25.336;2023-05-07T09:07:16;97447.13;;;24.05;32.15
34297;BME280;20564;42.902;25.336;2023-05-07T09:09:53;97460.66;;;24.17;34.57
34297;BME280;20564;42.902;25.336;2023-05-07T09:12:32;97455.19;;;24.05;33.12
34297;BME280;20564;42.902;25.336;2023-05-07T09:15:14;97453.59;;;24.22;32.55
34297;BME280;20564;42.902;25.336;2023-05-07T09:17:47;97461.13;;;24.14;32.17
34297;BME280;20564;42.902;25.336;2023-05-07T09:20:37;97464.75;;;24.01;32.16
34297;BME280;20564;42.902;25.336;2023-05-07T09:23:20;97450.09;;;23.97;32.68
34297;BME280;20564;42.902;25.336;2023-05-07T09:25:59;97452.16;;;23.95;32.93
34297;BME280;20564;42.902;25.336;2023-05-07T09:28:38;97447.00;;;23.68;32.28
34297;BME280;20564;42.902;25.336;2023-05-07T09:31:05;97438.84;;;23.81;34.19
34297;BME280;20564;42.902;25.336;2023-05-07T09:34:04;97435.91;;;23.83;33.38
34297;BME280;20564;42.902;25.336;2023-05-07T09:36:32;97427.75;;;23.96;31.55
34297;BME280;20564;42.902;25.336;2023-05-07T09:39:00;97432.41;;;24.33;32.69
34297;BME280;20564;42.902;25.336;2023-05-07T09:41:30;97427.16;;;24.38;31.50
34297;BME280;20564;42.902;25.336;2023-05-07T09:44:09;97422.06;;;24.54;31.61
34297;BME280;20564;42.902;25.336;2023-05-07T09:46:42;97422.44;;;24.58;30.85
34297;BME280;20564;42.902;25.336;2023-05-07T09:49:51;97420.13;;;24.80;33.14
34297;BME280;20564;42.902;25.336;2023-05-07T09:52:26;97415.84;;;24.91;31.74
34297;BME280;20564;42.902;25.336;2023-05-07T09:55:02;97420.72;;;24.82;32.41
34297;BME280;20564;42.902;25.336;2023-05-07T09:57:44;97416.31;;;24.88;32.08
34297;BME280;20564;42.902;25.336;2023-05-07T10:00:26;97418.25;;;24.81;31.48
34297;BME280;20564;42.902;25.336;2023-05-07T10:03:13;97417.94;;;24.70;31.12
34297;BME280;20564;42.902;25.336;2023-05-07T10:05:59;97424.09;;;24.77;33.75
34297;BME280;20564;42.902;25.336;2023-05-07T10:08:28;97413.75;;;24.56;30.34
34297;BME280;20564;42.902;25.336;2023-05-07T10:11:03;97403.88;;;24.32;31.10
34297;BME280;20564;42.902;25.336;2023-05-07T10:13:46;97398.09;;;24.28;32.61
34297;BME280;20564;42.902;25.336;2023-05-07T10:16:35;97395.63;;;24.26;32.79
34297;BME280;20564;42.902;25.336;2023-05-07T10:19:08;97391.72;;;24.22;30.91
34297;BME280;20564;42.902;25.336;2023-05-07T10:25:37;97395.50;;;23.96;31.84
34297;BME280;20564;42.902;25.336;2023-05-07T10:28:33;97388.88;;;23.99;33.39
34297;BME280;20564;42.902;25.336;2023-05-07T10:31:51;97397.41;;;24.14;30.90
34297;BME280;20564;42.902;25.336;2023-05-07T10:34:23;97394.88;;;24.19;30.99
34297;BME280;20564;42.902;25.336;2023-05-07T10:36:55;97389.22;;;24.46;32.06
34297;BME280;20564;42.902;25.336;2023-05-07T10:39:27;97379.84;;;24.55;32.72
34297;BME280;20564;42.902;25.336;2023-05-07T10:43:15;97384.13;;;24.38;32.16
34297;BME280;20564;42.902;25.336;2023-05-07T10:45:25;97390.34;;;24.57;31.79
34297;BME280;20564;42.902;25.336;2023-05-07T10:48:27;97380.63;;;24.74;33.35
34297;BME280;20564;42.902;25.336;2023-05-07T10:51:18;97384.53;;;24.60;32.40
34297;BME280;20564;42.902;25.336;2023-05-07T10:56:41;97375.28;;;24.30;31.30
34297;BME280;20564;42.902;25.336;2023-05-07T10:59:32;97374.16;;;24.45;32.08
34297;BME280;20564;42.902;25.336;2023-05-07T11:02:10;97365.94;;;24.58;31.18
34297;BME280;20564;42.902;25.336;2023-05-07T11:04:41;97367.19;;;24.74;31.54
34297;BME280;20564;42.902;25.336;2023-05-07T11:15:15;97365.59;;;24.85;33.62
34297;BME280;20564;42.902;25.336;2023-05-07T11:18:02;97360.75;;;24.75;31.90
34297;BME280;20564;42.902;25.336;2023-05-07T11:20:56;97356.91;;;24.83;32.34
34297;BME280;20564;42.902;25.336;2023-05-07T11:28:41;97363.34;;;24.26;33.06
34297;BME280;20564;42.902;25.336;2023-05-07T11:31:12;97361.59;;;23.95;31.88
34297;BME280;20564;42.902;25.336;2023-05-07T11:33:43;97357.81;;;24.03;31.98
34297;BME280;20564;42.902;25.336;2023-05-07T11:36:14;97359.22;;;24.24;33.59
34297;BME280;20564;42.902;25.336;2023-05-07T11:38:43;97358.72;;;24.34;32.63
34297;BME280;20564;42.902;25.336;2023-05-07T11:41:10;97352.31;;;24.53;32.42
34297;BME280;20564;42.902;25.336;2023-05-07T11:43:57;97344.78;;;24.62;31.95
34297;BME280;20564;42.902;25.336;2023-05-07T11:46:42;97349.75;;;24.76;31.98
34297;BME280;20564;42.902;25.336;2023-05-07T11:49:24;97349.09;;;24.44;32.86
34297;BME280;20564;42.902;25.336;2023-05-07T11:51:58;97338.38;;;24.38;32.15
34297;BME280;20564;42.902;25.336;2023-05-07T11:54:25;97338.19;;;24.58;33.33
34297;BME280;20564;42.902;25.336;2023-05-07T11:56:56;97341.53;;;24.53;31.66
34297;BME280;20564;42.902;25.336;2023-05-07T11:59:29;97339.38;;;24.62;33.52
34297;BME280;20564;42.902;25.336;2023-05-07T12:01:57;97336.63;;;24.50;31.39
34297;BME280;20564;42.902;25.336;2023-05-07T12:04:29;97327.81;;;24.43;31.39
34297;BME280;20564;42.902;25.336;2023-05-07T12:06:57;97335.34;;;24.52;31.71
34297;BME280;20564;42.902;25.336;2023-05-07T12:09:24;97326.25;;;24.53;31.96
34297;BME280;20564;42.902;25.336;2023-05-07T12:11:52;97326.44;;;24.70;32.79
34297;BME280;20564;42.902;25.336;2023-05-07T12:14:27;97324.88;;;24.63;31.07
34297;BME280;20564;42.902;25.336;2023-05-07T12:16:55;97320.75;;;24.60;31.09
34297;BME280;20564;42.902;25.336;2023-05-07T12:19:23;97312.69;;;24.60;30.62
34297;BME280;20564;42.902;25.336;2023-05-07T12:21:57;97315.22;;;24.73;30.63
34297;BME280;20564;42.902;25.336;2023-05-07T12:24:25;97309.19;;;24.60;31.85
34297;BME280;20564;42.902;25.336;2023-05-07T12:27:00;97313.06;;;24.45;31.69
34297;BME280;20564;42.902;25.336;2023-05-07T12:29:31;97301.78;;;24.55;32.00
34297;BME280;20564;42.902;25.336;2023-05-07T12:31:58;97298.31;;;24.66;30.77
34297;BME280;20564;42.902;25.336;2023-05-07T12:34:26;97301.47;;;24.63;31.63
34297;BME280;20564;42.902;25.336;2023-05-07T12:36:53;97297.06;;;24.69;31.36
34297;BME280;20564;42.902;25.336;2023-05-07T12:39:19;97290.13;;;24.61;31.31
34297;BME280;20564;42.902;25.336;2023-05-07T12:41:56;97296.44;;;24.67;32.36
34297;BME280;20564;42.902;25.336;2023-05-07T12:44:29;97295.97;;;24.58;32.27
34297;BME280;20564;42.902;25.336;2023-05-07T12:47:09;97296.72;;;24.47;31.39
34297;BME280;20564;42.902;25.336;2023-05-07T12:49:37;97294.44;;;24.62;31.14
34297;BME280;20564;42.902;25.336;2023-05-07T12:52:06;97292.81;;;24.61;30.80
34297;BME280;20564;42.902;25.336;2023-05-07T12:54:37;97298.91;;;24.87;31.09
34297;BME280;20564;42.902;25.336;2023-05-07T12:57:05;97296.31;;;24.92;30.99
34297;BME280;20564;42.902;25.336;2023-05-07T12:59:34;97292.38;;;25.06;30.99
34297;BME280;20564;42.902;25.336;2023-05-07T13:02:02;97284.84;;;25.26;32.44
34297;BME280;20564;42.902;25.336;2023-05-07T13:04:29;97286.88;;;25.43;32.66
34297;BME280;20564;42.902;25.336;2023-05-07T13:06:57;97285.94;;;25.49;33.11
34297;BME280;20564;42.902;25.336;2023-05-07T13:09:25;97290.28;;;25.50;31.96
34297;BME280;20564;42.902;25.336;2023-05-07T13:11:52;97283.47;;;25.47;30.78
34297;BME280;20564;42.902;25.336;2023-05-07T13:14:19;97282.09;;;25.45;29.93
34297;BME280;20564;42.902;25.336;2023-05-07T13:16:51;97275.75;;;25.39;31.67
34297;BME280;20564;42.902;25.336;2023-05-07T13:19:18;97289.00;;;25.53;32.15
34297;BME280;20564;42.902;25.336;2023-05-07T13:21:48;97278.78;;;25.31;30.45
34297;BME280;20564;42.902;25.336;2023-05-07T13:24:19;97276.53;;;25.28;31.40
34297;BME280;20564;42.902;25.336;2023-05-07T13:26:47;97270.38;;;25.09;30.02
34297;BME280;20564;42.902;25.336;2023-05-07T13:29:14;97271.06;;;25.05;30.67
34297;BME280;20564;42.902;25.336;2023-05-07T13:31:45;97269.78;;;25.07;31.50
34297;BME280;20564;42.902;25.336;2023-05-07T13:34:39;97277.25;;;24.63;32.25
34297;BME280;20564;42.902;25.336;2023-05-07T13:37:07;97277.63;;;24.67;34.00
34297;BME280;20564;42.902;25.336;2023-05-07T13:43:47;97269.78;;;24.65;31.27
34297;BME280;20564;42.902;25.336;2023-05-07T13:46:29;97273.59;;;24.58;30.05